createdAt,value
2023-02-24T00:03:45.130Z,5.76
2023-02-24T00:08:47.432Z,5.74
2023-02-24T00:13:49.047Z,5.76
2023-02-24T00:18:51.194Z,5.79
2023-02-24T00:23:53.704Z,5.78
2023-02-24T00:29:03.695Z,5.85
2023-02-24T00:34:07.154Z,5.80
2023-02-24T00:39:10.264Z,5.78
2023-02-24T00:44:14.784Z,5.82
2023-02-24T00:49:19.689Z,5.82
2023-02-24T00:54:21.628Z,5.79
2023-02-24T00:59:26.192Z,5.75
2023-02-24T01:04:29.387Z,5.71
2023-02-24T01:09:32.457Z,5.76
2023-02-24T01:14:36.150Z,5.63
2023-02-24T01:19:39.106Z,5.66
2023-02-24T01:24:43.306Z,5.65
2023-02-24T01:29:46.778Z,5.77
2023-02-24T01:34:52.198Z,5.64
2023-02-24T01:39:54.327Z,5.69
2023-02-24T01:45:06.144Z,5.70
2023-02-24T01:50:09.906Z,5.63
2023-02-24T01:55:20.163Z,5.58
2023-02-24T02:00:38.107Z,5.40
2023-02-24T02:05:41.687Z,5.51
2023-02-24T02:10:46.788Z,5.67
2023-02-24T02:16:13.717Z,5.54
2023-02-24T02:21:36.886Z,5.41
2023-02-24T02:27:06.858Z,5.43
2023-02-24T02:32:38.340Z,5.55
2023-02-24T02:37:50.485Z,5.50
2023-02-24T02:43:15.826Z,5.48
2023-02-24T02:48:25.733Z,5.43
2023-02-24T02:53:39.724Z,5.18
2023-02-24T02:58:47.828Z,5.28
2023-02-24T03:03:56.779Z,5.32
2023-02-24T03:09:15.910Z,5.41
2023-02-24T03:14:24.017Z,5.45
2023-02-24T03:19:37.860Z,5.47
2023-02-24T03:24:41.252Z,5.35
2023-02-24T03:29:56.642Z,5.39
2023-02-24T03:35:08.598Z,5.25
2023-02-24T03:40:16.282Z,5.20
2023-02-24T03:45:22.632Z,5.29
2023-02-24T03:50:26.976Z,5.31
2023-02-24T03:55:59.590Z,5.27
2023-02-24T04:01:16.121Z,5.27
2023-02-24T04:06:31.787Z,5.26
2023-02-24T04:11:42.905Z,5.28
2023-02-24T04:17:03.800Z,5.36
2023-02-24T04:22:10.548Z,5.31
2023-02-24T04:27:15.657Z,5.40
2023-02-24T04:32:22.490Z,5.25
2023-02-24T04:37:24.870Z,5.31
2023-02-24T04:42:27.446Z,5.30
2023-02-24T04:47:29.326Z,5.25
2023-02-24T04:52:30.998Z,5.28
2023-02-24T04:57:37.607Z,5.36
2023-02-24T05:02:39.322Z,5.28
2023-02-24T05:07:40.997Z,5.26
2023-02-24T05:12:43.076Z,5.26
2023-02-24T05:17:44.686Z,5.16
2023-02-24T05:22:51.853Z,5.22
2023-02-24T05:27:53.566Z,5.21
2023-02-24T05:32:56.344Z,5.19
2023-02-24T05:37:59.212Z,5.14
2023-02-24T05:43:04.695Z,5.08
2023-02-24T05:48:06.294Z,5.14
2023-02-24T05:53:09.610Z,5.08
2023-02-24T05:58:11.387Z,5.00
2023-02-24T06:03:17.529Z,5.12
2023-02-24T06:08:19.506Z,5.04
2023-02-24T06:13:21.135Z,5.14
2023-02-24T06:18:22.737Z,5.10
2023-02-24T06:23:26.768Z,4.99
2023-02-24T06:28:28.437Z,4.98
2023-02-24T06:33:31.222Z,4.96
2023-02-24T06:38:34.616Z,5.06
2023-02-24T06:43:45.162Z,5.01
2023-02-24T06:48:48.159Z,4.95
2023-02-24T06:53:52.321Z,4.96
2023-02-24T06:58:55.913Z,5.03
2023-02-24T07:04:07.877Z,5.03
2023-02-24T07:09:15.096Z,5.09
2023-02-24T07:14:16.740Z,5.10
2023-02-24T07:19:20.084Z,5.08
2023-02-24T07:24:25.828Z,5.13
2023-02-24T07:29:30.463Z,5.15
2023-02-24T07:34:33.773Z,5.13
2023-02-24T07:39:37.529Z,5.00
2023-02-24T07:44:39.462Z,5.12
2023-02-24T07:49:41.266Z,5.02
2023-02-24T07:54:43.312Z,5.14
2023-02-24T07:59:45.275Z,5.10
2023-02-24T08:04:51.566Z,5.13
2023-02-24T08:10:12.083Z,5.15
2023-02-24T08:15:24.163Z,5.18
2023-02-24T08:20:52.028Z,5.13
2023-02-24T08:25:53.899Z,5.10
2023-02-24T08:30:55.746Z,5.16
2023-02-24T08:36:02.192Z,5.18
2023-02-24T08:41:05.061Z,5.15
2023-02-24T08:46:13.394Z,5.10
2023-02-24T08:51:28.798Z,5.15
2023-02-24T08:56:34.589Z,5.18
2023-02-24T09:01:40.243Z,5.22
2023-02-24T09:06:53.826Z,5.21
2023-02-24T09:11:58.974Z,5.20
2023-02-24T09:17:03.485Z,5.31
2023-02-24T09:22:21.116Z,5.31
2023-02-24T09:27:29.275Z,5.35
2023-02-24T09:32:31.101Z,5.37
2023-02-24T09:37:32.860Z,5.40
2023-02-24T09:42:46.414Z,5.40
2023-02-24T09:47:54.816Z,5.51
2023-02-24T09:53:13.971Z,5.49
2023-02-24T09:58:58.719Z,5.61
2023-02-24T10:04:20.258Z,5.66
2023-02-24T10:09:40.725Z,5.74
2023-02-24T10:15:18.713Z,5.81
2023-02-24T10:20:39.306Z,5.95
2023-02-24T10:25:55.628Z,6.22
2023-02-24T10:31:25.075Z,6.17
2023-02-24T10:36:35.339Z,6.44
2023-02-24T10:41:47.008Z,6.37
2023-02-24T10:47:11.889Z,6.63
2023-02-24T10:52:33.457Z,6.74
2023-02-24T10:57:58.514Z,6.67
2023-02-24T11:03:10.656Z,6.87
2023-02-24T11:08:15.827Z,6.84
2023-02-24T11:13:36.105Z,7.12
2023-02-24T11:18:39.591Z,7.49
2023-02-24T11:23:50.106Z,7.90
2023-02-24T11:29:30.560Z,8.21
2023-02-24T11:34:59.559Z,8.22
2023-02-24T11:40:09.470Z,8.07
2023-02-24T11:45:32.810Z,7.90
2023-02-24T11:51:02.117Z,8.56
2023-02-24T11:56:11.396Z,8.73
2023-02-24T12:01:35.686Z,8.99
2023-02-24T12:06:52.389Z,8.32
2023-02-24T12:12:09.334Z,8.81
2023-02-24T12:17:10.897Z,8.63
2023-02-24T12:22:15.871Z,8.15
2023-02-24T12:27:46.509Z,8.39
2023-02-24T12:33:03.969Z,8.93
2023-02-24T12:38:43.390Z,9.63
2023-02-24T12:43:47.936Z,9.67
2023-02-24T12:49:21.607Z,9.65
2023-02-24T12:54:31.404Z,9.64
2023-02-24T12:59:38.220Z,9.20
2023-02-24T13:05:24.670Z,10.43
2023-02-24T13:11:05.354Z,9.19
2023-02-24T13:16:07.237Z,8.79
2023-02-24T13:21:14.865Z,9.29
2023-02-24T13:26:23.137Z,8.70
2023-02-24T13:31:26.359Z,9.25
2023-02-24T13:36:28.333Z,8.94
2023-02-24T13:41:29.941Z,8.97
2023-02-24T13:46:50.691Z,9.81
2023-02-24T13:52:20.363Z,9.46
2023-02-24T13:57:40.717Z,8.99
2023-02-24T14:02:44.211Z,9.34
2023-02-24T14:07:50.173Z,9.88
2023-02-24T14:13:04.761Z,9.64
2023-02-24T14:18:06.502Z,9.60
2023-02-24T14:23:29.206Z,9.73
2023-02-24T14:28:39.270Z,8.87
2023-02-24T14:33:44.365Z,9.54
2023-02-24T14:38:46.194Z,9.39
2023-02-24T14:43:47.939Z,9.20
2023-02-24T14:48:56.077Z,8.76
2023-02-24T14:54:02.888Z,9.07
2023-02-24T14:59:15.028Z,8.48
2023-02-24T15:04:37.113Z,9.08
2023-02-24T15:09:43.108Z,9.41
2023-02-24T15:14:51.088Z,9.37
2023-02-24T15:19:55.782Z,8.90
2023-02-24T15:25:15.781Z,9.70
2023-02-24T15:30:38.852Z,10.10
2023-02-24T15:35:48.580Z,9.46
2023-02-24T15:40:55.792Z,8.56
2023-02-24T15:45:57.518Z,9.28
2023-02-24T15:51:05.667Z,9.29
2023-02-24T15:56:07.345Z,9.28
2023-02-24T16:01:11.459Z,8.58
2023-02-24T16:06:19.920Z,8.21
2023-02-24T16:11:26.677Z,8.55
2023-02-24T16:16:28.624Z,8.51
2023-02-24T16:21:30.332Z,8.12
2023-02-24T16:26:36.160Z,8.48
2023-02-24T16:31:39.123Z,8.30
2023-02-24T16:36:42.503Z,8.21
2023-02-24T16:41:47.076Z,8.42
2023-02-24T16:46:49.307Z,8.20
2023-02-24T16:51:50.949Z,7.84
2023-02-24T16:56:52.746Z,7.51
2023-02-24T17:01:54.748Z,7.46
2023-02-24T17:06:56.672Z,7.28
2023-02-24T17:11:58.349Z,7.53
2023-02-24T17:17:00.156Z,7.68
2023-02-24T17:22:01.845Z,8.70
2023-02-24T17:27:04.541Z,8.95
2023-02-24T17:32:06.533Z,7.90
2023-02-24T17:37:08.325Z,7.52
2023-02-24T17:42:09.984Z,7.50
2023-02-24T17:47:12.282Z,7.37
2023-02-24T17:52:13.932Z,7.33
2023-02-24T17:57:15.801Z,7.40
2023-02-24T18:02:17.992Z,7.69
2023-02-24T18:07:21.126Z,7.46
2023-02-24T18:12:24.714Z,7.46
2023-02-24T18:17:26.408Z,7.48
2023-02-24T18:22:28.030Z,7.48
2023-02-24T18:27:29.718Z,7.49
2023-02-24T18:32:31.501Z,7.41
2023-02-24T18:37:34.004Z,7.60
2023-02-24T18:42:35.605Z,7.56
2023-02-24T18:47:37.357Z,8.04
2023-02-24T18:52:39.172Z,7.23
2023-02-24T18:57:41.118Z,7.53
2023-02-24T19:02:42.868Z,7.18
2023-02-24T19:07:44.657Z,7.16
2023-02-24T19:12:47.266Z,7.35
2023-02-24T19:17:49.042Z,7.31
2023-02-24T19:22:51.762Z,7.52
2023-02-24T19:27:54.109Z,7.50
2023-02-24T19:32:55.878Z,7.53
2023-02-24T19:37:57.668Z,8.79
2023-02-24T19:42:59.288Z,7.91
2023-02-24T19:48:00.952Z,7.29
2023-02-24T19:53:02.585Z,6.96
2023-02-24T19:58:04.250Z,6.90
2023-02-24T20:03:06.031Z,6.98
2023-02-24T20:08:07.714Z,7.45
2023-02-24T20:13:09.360Z,7.53
2023-02-24T20:18:11.301Z,7.80
2023-02-24T20:23:13.006Z,7.45
2023-02-24T20:28:14.606Z,7.81
2023-02-24T20:33:19.268Z,7.98
2023-02-24T20:38:22.043Z,7.44
2023-02-24T20:43:23.878Z,7.75
2023-02-24T20:48:26.305Z,7.57
2023-02-24T20:53:27.932Z,7.66
2023-02-24T20:58:29.647Z,7.42
2023-02-24T21:03:32.391Z,7.28
2023-02-24T21:08:35.013Z,7.32
2023-02-24T21:13:41.052Z,8.55
2023-02-24T21:18:44.813Z,8.77
2023-02-24T21:23:47.196Z,7.65
2023-02-24T21:28:56.207Z,6.95
2023-02-24T21:33:59.105Z,6.81
2023-02-24T21:39:01.012Z,6.60
2023-02-24T21:44:02.663Z,6.48
2023-02-24T21:49:04.535Z,6.61
2023-02-24T21:54:08.837Z,6.51
2023-02-24T21:59:11.285Z,7.14
2023-02-24T22:04:16.169Z,6.94
2023-02-24T22:09:19.418Z,6.61
2023-02-24T22:14:21.760Z,6.60
2023-02-24T22:19:23.878Z,7.01
2023-02-24T22:24:25.473Z,6.98
2023-02-24T22:29:27.132Z,6.79
2023-02-24T22:34:28.780Z,6.84
2023-02-24T22:39:30.481Z,7.28
2023-02-24T22:44:32.073Z,7.19
2023-02-24T22:49:33.723Z,6.96
2023-02-24T22:54:35.516Z,6.80
2023-02-24T22:59:37.076Z,7.04
2023-02-24T23:04:38.982Z,7.26
2023-02-24T23:09:40.575Z,7.43
2023-02-24T23:14:42.322Z,7.33
2023-02-24T23:19:43.995Z,6.93
2023-02-24T23:24:45.659Z,6.63
2023-02-24T23:29:47.255Z,6.66
2023-02-24T23:34:48.877Z,6.52
2023-02-24T23:39:50.678Z,6.73
2023-02-24T23:44:52.759Z,6.94
2023-02-24T23:49:54.408Z,7.16
2023-02-24T23:54:55.988Z,7.13
2023-02-24T23:59:58.920Z,6.87
